createdAt,value
2017-02-24T00:00:39.852Z,25.4
2017-02-24T00:01:39.908Z,25.4
2017-02-24T00:02:39.967Z,25.4
2017-02-24T00:03:38.279Z,25.4
2017-02-24T00:04:38.486Z,25.4
2017-02-24T00:05:38.553Z,25.4
2017-02-24T00:06:40.062Z,25.4
2017-02-24T00:07:38.487Z,25.4
2017-02-24T00:08:40.196Z,25.4
2017-02-24T00:09:38.681Z,25.4
2017-02-24T00:10:38.751Z,25.4
2017-02-24T00:11:40.260Z,25.4
2017-02-24T00:12:38.763Z,25.4
2017-02-24T00:13:40.487Z,25.4
2017-02-24T00:14:40.511Z,25.4
2017-02-24T00:15:40.439Z,25.4
2017-02-24T00:16:40.555Z,25.4
2017-02-24T00:17:40.553Z,25.4
2017-02-24T00:18:40.770Z,25.4
2017-02-24T00:19:39.261Z,25.4
2017-02-24T00:20:39.196Z,25.4
2017-02-24T00:21:39.578Z,25.4
2017-02-24T00:22:41.032Z,25.4
2017-02-24T00:23:39.429Z,25.4
2017-02-24T00:24:41.132Z,25.4
2017-02-24T00:25:41.140Z,25.4
2017-02-24T00:26:39.565Z,25.4
2017-02-24T00:27:41.222Z,25.4
2017-02-24T00:28:41.309Z,25.4
2017-02-24T00:29:39.782Z,25.4
2017-02-24T00:30:41.410Z,25.4
2017-02-24T00:31:39.886Z,25.4
2017-02-24T00:32:39.846Z,25.4
2017-02-24T00:33:42.075Z,25.4
2017-02-24T00:34:39.853Z,25.4
2017-02-24T00:35:40.087Z,25.5
2017-02-24T00:36:41.553Z,25.5
2017-02-24T00:37:41.616Z,25.4
2017-02-24T00:38:40.140Z,25.5
2017-02-24T00:39:41.695Z,25.5
2017-02-24T00:40:40.185Z,25.5
2017-02-24T00:41:41.469Z,25.5
2017-02-24T00:42:40.303Z,25.5
2017-02-24T00:43:41.786Z,25.4
2017-02-24T00:44:40.312Z,25.5
2017-02-24T00:45:41.931Z,25.5
2017-02-24T00:46:42.104Z,25.5
2017-02-24T00:47:40.443Z,25.5
2017-02-24T00:48:40.653Z,25.5
2017-02-24T00:49:40.538Z,25.5
2017-02-24T00:50:42.151Z,25.5
2017-02-24T00:51:42.184Z,25.5
2017-02-24T00:52:40.737Z,25.5
2017-02-24T00:53:40.669Z,25.5
2017-02-24T00:54:42.349Z,25.5
2017-02-24T00:55:42.321Z,25.5
2017-02-24T00:56:40.888Z,25.5
2017-02-24T00:57:42.448Z,25.4
2017-02-24T00:58:42.574Z,25.5
2017-02-24T00:59:42.496Z,25.5
2017-02-24T01:00:42.590Z,25.4
2017-02-24T01:01:42.692Z,25.5
2017-02-24T01:02:42.852Z,25.5
2017-02-24T01:03:42.943Z,25.4
2017-02-24T01:04:42.987Z,25.5
2017-02-24T01:05:43.070Z,25.5
2017-02-24T01:06:43.008Z,25.5
2017-02-24T01:07:43.156Z,25.4
2017-02-24T01:08:43.192Z,25.5
2017-02-24T01:09:41.667Z,25.5
2017-02-24T01:10:43.437Z,25.4
2017-02-24T01:11:41.847Z,25.5
2017-02-24T01:12:43.502Z,25.5
2017-02-24T01:13:41.866Z,25.5
2017-02-24T01:14:43.458Z,25.5
2017-02-24T01:15:41.891Z,25.5
2017-02-24T01:16:42.051Z,25.5
2017-02-24T01:17:43.706Z,25.5
2017-02-24T01:18:42.090Z,25.5
2017-02-24T01:19:43.624Z,25.5
2017-02-24T01:20:42.136Z,25.5
2017-02-24T01:21:42.131Z,25.5
2017-02-24T01:22:43.749Z,25.5
2017-02-24T01:23:42.299Z,25.5
2017-02-24T01:24:43.818Z,25.5
2017-02-24T01:25:43.949Z,25.5
2017-02-24T01:26:43.905Z,25.5
2017-02-24T01:27:44.243Z,25.5
2017-02-24T01:28:42.387Z,25.5
2017-02-24T01:29:44.004Z,25.5
2017-02-24T01:30:42.576Z,25.5
2017-02-24T01:31:42.544Z,25.5
2017-02-24T01:32:44.237Z,25.5
2017-02-24T01:33:44.448Z,25.5
2017-02-24T01:34:44.242Z,25.5
2017-02-24T01:35:42.710Z,25.5
2017-02-24T01:36:44.304Z,25.5
2017-02-24T01:37:42.896Z,25.5
2017-02-24T01:38:44.447Z,25.5
2017-02-24T01:39:43.121Z,25.5
2017-02-24T01:40:44.513Z,25.5
2017-02-24T01:41:42.792Z,25.5
2017-02-24T01:42:44.413Z,25.5
2017-02-24T01:43:44.455Z,25.5
2017-02-24T01:44:44.575Z,25.5
2017-02-24T01:45:44.959Z,25.5
2017-02-24T01:46:43.180Z,25.5
2017-02-24T01:47:43.132Z,25.5
2017-02-24T01:48:43.281Z,25.5
2017-02-24T01:49:43.279Z,25.5
2017-02-24T01:50:44.822Z,25.5
2017-02-24T01:51:45.150Z,25.5
2017-02-24T01:52:44.944Z,25.5
2017-02-24T01:53:44.953Z,25.5
2017-02-24T01:54:45.000Z,25.5
2017-02-24T01:55:45.132Z,25.5
2017-02-24T01:56:43.513Z,25.5
2017-02-24T01:57:45.568Z,25.5
2017-02-24T01:58:43.527Z,25.5
2017-02-24T01:59:43.639Z,25.6
2017-02-24T02:00:45.155Z,25.5
2017-02-24T02:01:45.225Z,25.6
2017-02-24T02:02:43.684Z,25.6
2017-02-24T02:03:44.009Z,25.6
2017-02-24T02:04:43.758Z,25.6
2017-02-24T02:05:45.393Z,25.6
2017-02-24T02:06:43.982Z,25.6
2017-02-24T02:07:43.978Z,25.6
2017-02-24T02:08:45.524Z,25.6
2017-02-24T02:09:44.315Z,25.6
2017-02-24T02:10:46.307Z,25.6
2017-02-24T02:11:45.557Z,25.6
2017-02-24T02:12:45.684Z,25.6
2017-02-24T02:13:44.011Z,25.6
2017-02-24T02:14:44.114Z,25.6
2017-02-24T02:15:44.601Z,25.6
2017-02-24T02:16:44.387Z,25.6
2017-02-24T02:17:44.342Z,25.5
2017-02-24T02:18:45.993Z,25.6
2017-02-24T02:19:44.531Z,25.6
2017-02-24T02:20:44.592Z,25.6
2017-02-24T02:21:47.120Z,25.5
2017-02-24T02:22:44.577Z,25.6
2017-02-24T02:23:46.296Z,25.6
2017-02-24T02:24:46.396Z,25.6
2017-02-24T02:25:46.276Z,25.6
2017-02-24T02:26:46.278Z,25.6
2017-02-24T02:27:46.602Z,25.6
2017-02-24T02:28:44.748Z,25.6
2017-02-24T02:29:46.503Z,25.6
2017-02-24T02:30:44.878Z,25.6
2017-02-24T02:31:46.553Z,25.6
2017-02-24T02:32:46.603Z,25.6
2017-02-24T02:33:46.806Z,25.6
2017-02-24T02:34:46.603Z,25.6
2017-02-24T02:35:45.033Z,25.6
2017-02-24T02:36:45.123Z,25.6
2017-02-24T02:37:45.173Z,25.6
2017-02-24T02:38:46.816Z,25.6
2017-02-24T02:39:45.623Z,25.6
2017-02-24T02:40:46.873Z,25.6
2017-02-24T02:41:45.209Z,25.6
2017-02-24T02:42:47.002Z,25.6
2017-02-24T02:43:46.954Z,25.6
2017-02-24T02:44:45.522Z,25.6
2017-02-24T02:45:47.375Z,25.6
2017-02-24T02:46:47.126Z,25.6
2017-02-24T02:47:45.580Z,25.6
2017-02-24T02:48:45.528Z,25.6
2017-02-24T02:49:47.226Z,25.6
2017-02-24T02:50:45.593Z,25.6
2017-02-24T02:51:47.461Z,25.6
2017-02-24T02:52:47.199Z,25.6
2017-02-24T02:53:45.677Z,25.6
2017-02-24T02:54:45.733Z,25.6
2017-02-24T02:55:45.888Z,25.6
2017-02-24T02:56:45.850Z,25.6
2017-02-24T02:57:46.206Z,25.6
2017-02-24T02:58:46.069Z,25.6
2017-02-24T02:59:46.075Z,25.6
2017-02-24T03:00:45.955Z,25.6
2017-02-24T03:01:45.977Z,25.7
2017-02-24T03:02:46.682Z,25.6
2017-02-24T03:03:48.899Z,25.6
2017-02-24T03:04:46.058Z,25.7
2017-02-24T03:05:47.779Z,25.6
2017-02-24T03:06:47.920Z,25.7
2017-02-24T03:07:47.854Z,25.7
2017-02-24T03:08:46.433Z,25.7
2017-02-24T03:09:48.351Z,25.7
2017-02-24T03:10:48.053Z,25.7
2017-02-24T03:11:48.057Z,25.7
2017-02-24T03:12:48.230Z,25.7
2017-02-24T03:13:48.306Z,25.7
2017-02-24T03:14:48.256Z,25.7
2017-02-24T03:15:48.707Z,25.6
2017-02-24T03:16:48.388Z,25.7
2017-02-24T03:17:48.553Z,25.7
2017-02-24T03:18:48.530Z,25.7
2017-02-24T03:19:47.185Z,25.6
2017-02-24T03:20:47.240Z,25.7
2017-02-24T03:21:47.443Z,25.7
2017-02-24T03:22:47.837Z,25.7
2017-02-24T03:23:49.555Z,25.6
2017-02-24T03:24:48.966Z,25.7
2017-02-24T03:25:47.579Z,25.7
2017-02-24T03:26:49.156Z,25.7
2017-02-24T03:27:47.873Z,25.7
2017-02-24T03:28:47.524Z,25.7
2017-02-24T03:29:47.737Z,25.7
2017-02-24T03:30:47.784Z,25.7
2017-02-24T03:31:49.295Z,25.7
2017-02-24T03:32:47.763Z,25.7
2017-02-24T03:33:49.670Z,25.7
2017-02-24T03:34:47.829Z,25.7
2017-02-24T03:35:49.589Z,25.7
2017-02-24T03:36:48.078Z,25.7
2017-02-24T03:37:49.730Z,25.7
2017-02-24T03:38:48.287Z,25.7
2017-02-24T03:39:48.517Z,25.7
2017-02-24T03:40:49.940Z,25.7
2017-02-24T03:41:48.453Z,25.7
2017-02-24T03:42:48.474Z,25.7
2017-02-24T03:43:49.938Z,25.7
2017-02-24T03:44:50.014Z,25.7
2017-02-24T03:45:48.757Z,25.7
2017-02-24T03:46:50.074Z,25.7
2017-02-24T03:47:48.748Z,25.7
2017-02-24T03:48:48.601Z,25.7
2017-02-24T03:49:50.388Z,25.7
2017-02-24T03:50:48.764Z,25.7
2017-02-24T03:51:50.719Z,25.7
2017-02-24T03:52:48.729Z,25.7
2017-02-24T03:53:48.790Z,25.7
2017-02-24T03:54:48.956Z,25.7
2017-02-24T03:55:50.525Z,25.7
2017-02-24T03:56:48.907Z,25.7
2017-02-24T03:57:50.929Z,25.7
2017-02-24T03:58:50.659Z,25.7
2017-02-24T03:59:50.735Z,25.7
2017-02-24T04:00:49.168Z,25.7
2017-02-24T04:01:49.329Z,25.7
2017-02-24T04:02:49.363Z,25.7
2017-02-24T04:03:51.301Z,25.7
2017-02-24T04:04:50.861Z,25.7
2017-02-24T04:05:49.312Z,25.7
2017-02-24T04:06:51.061Z,25.7
2017-02-24T04:07:51.144Z,25.7
2017-02-24T04:08:51.056Z,25.7
2017-02-24T04:09:51.367Z,25.7
2017-02-24T04:10:51.296Z,25.7
2017-02-24T04:11:49.789Z,25.7
2017-02-24T04:12:51.443Z,25.7
2017-02-24T04:13:50.062Z,25.7
2017-02-24T04:14:51.573Z,25.7
2017-02-24T04:15:50.222Z,25.7
2017-02-24T04:16:51.728Z,25.7
2017-02-24T04:17:50.198Z,25.8
2017-02-24T04:18:50.255Z,25.8
2017-02-24T04:19:52.487Z,25.8
2017-02-24T04:20:50.326Z,25.8
2017-02-24T04:21:52.146Z,25.8
2017-02-24T04:22:52.068Z,25.8
2017-02-24T04:23:52.022Z,25.8
2017-02-24T04:24:52.073Z,25.8
2017-02-24T04:25:52.237Z,25.8
2017-02-24T04:26:52.238Z,25.8
2017-02-24T04:27:53.240Z,25.8
2017-02-24T04:28:50.849Z,25.8
2017-02-24T04:29:52.443Z,25.8
2017-02-24T04:30:50.687Z,25.8
2017-02-24T04:31:52.423Z,25.8
2017-02-24T04:32:50.823Z,25.8
2017-02-24T04:33:51.768Z,25.8
2017-02-24T04:34:50.934Z,25.8
2017-02-24T04:35:50.964Z,25.7
2017-02-24T04:36:51.021Z,25.8
2017-02-24T04:37:52.746Z,25.8
2017-02-24T04:38:51.299Z,25.8
2017-02-24T04:39:53.041Z,25.8
2017-02-24T04:40:52.953Z,25.8
2017-02-24T04:41:52.777Z,25.8
2017-02-24T04:42:51.206Z,25.8
2017-02-24T04:43:51.429Z,25.8
2017-02-24T04:44:52.900Z,25.8
2017-02-24T04:45:53.378Z,25.8
2017-02-24T04:46:53.026Z,25.8
2017-02-24T04:47:51.505Z,25.8
2017-02-24T04:48:53.199Z,25.8
2017-02-24T04:49:53.098Z,25.8
2017-02-24T04:50:51.520Z,25.8
2017-02-24T04:51:53.526Z,25.8
2017-02-24T04:52:51.702Z,25.8
2017-02-24T04:53:53.238Z,25.8
2017-02-24T04:54:53.400Z,25.8
2017-02-24T04:55:53.381Z,25.8
2017-02-24T04:56:53.552Z,25.8
2017-02-24T04:57:53.882Z,25.8
2017-02-24T04:58:52.213Z,25.8
2017-02-24T04:59:52.135Z,25.8
2017-02-24T05:00:52.207Z,25.8
2017-02-24T05:01:53.745Z,25.8
2017-02-24T05:02:53.759Z,25.8
2017-02-24T05:03:52.659Z,25.8
2017-02-24T05:04:53.801Z,25.8
2017-02-24T05:05:52.216Z,25.8
2017-02-24T05:06:52.251Z,25.8
2017-02-24T05:07:54.028Z,25.8
2017-02-24T05:08:54.006Z,25.8
2017-02-24T05:09:52.705Z,25.8
2017-02-24T05:10:54.194Z,25.8
2017-02-24T05:11:54.088Z,25.8
2017-02-24T05:12:54.284Z,25.8
2017-02-24T05:13:52.763Z,25.8
2017-02-24T05:14:54.307Z,25.8
2017-02-24T05:15:54.630Z,25.8
2017-02-24T05:16:54.445Z,25.8
2017-02-24T05:17:52.926Z,25.8
2017-02-24T05:18:52.980Z,25.8
2017-02-24T05:19:52.989Z,25.9
2017-02-24T05:20:53.026Z,25.8
2017-02-24T05:21:53.311Z,25.9
2017-02-24T05:22:54.688Z,25.9
2017-02-24T05:23:54.767Z,25.8
2017-02-24T05:24:54.805Z,25.8
2017-02-24T05:25:53.105Z,25.9
2017-02-24T05:26:53.137Z,25.9
2017-02-24T05:27:55.076Z,25.9
2017-02-24T05:28:53.360Z,25.9
2017-02-24T05:29:54.913Z,25.9
2017-02-24T05:30:53.495Z,25.8
2017-02-24T05:31:54.994Z,25.9
2017-02-24T05:32:55.016Z,25.9
2017-02-24T05:33:53.760Z,25.9
2017-02-24T05:34:55.294Z,25.9
2017-02-24T05:35:55.283Z,25.9
2017-02-24T05:36:53.877Z,25.9
2017-02-24T05:37:55.366Z,25.8
2017-02-24T05:38:53.902Z,25.9
2017-02-24T05:39:55.697Z,25.9
2017-02-24T05:40:55.463Z,25.8
2017-02-24T05:41:53.841Z,25.9
2017-02-24T05:42:54.011Z,25.9
2017-02-24T05:43:54.109Z,25.9
2017-02-24T05:44:54.066Z,25.8
2017-02-24T05:45:55.958Z,25.9
2017-02-24T05:46:55.796Z,25.9
2017-02-24T05:47:54.331Z,25.9
2017-02-24T05:48:54.255Z,25.9
2017-02-24T05:49:54.328Z,25.9
2017-02-24T05:50:54.492Z,25.9
2017-02-24T05:51:54.754Z,25.9
2017-02-24T05:52:56.165Z,25.9
2017-02-24T05:53:54.650Z,25.9
2017-02-24T05:54:56.234Z,25.9
2017-02-24T05:55:54.636Z,25.9
2017-02-24T05:56:56.287Z,25.9
2017-02-24T05:57:55.134Z,25.9
2017-02-24T05:58:56.423Z,25.9
2017-02-24T05:59:56.643Z,25.7
2017-02-24T06:00:56.648Z,25.3
2017-02-24T06:01:56.732Z,24.8
2017-02-24T06:02:55.167Z,24.5
2017-02-24T06:03:57.075Z,24.4
2017-02-24T06:04:56.824Z,24.3
2017-02-24T06:05:56.846Z,24.4
2017-02-24T06:06:56.934Z,24.4
2017-02-24T06:07:55.457Z,24.4
2017-02-24T06:08:57.079Z,24.5
2017-02-24T06:09:55.681Z,24.6
2017-02-24T06:10:55.540Z,24.7
2017-02-24T06:11:55.493Z,24.7
2017-02-24T06:12:57.174Z,24.8
2017-02-24T06:13:55.743Z,24.9
2017-02-24T06:14:57.215Z,24.9
2017-02-24T06:15:57.619Z,25
2017-02-24T06:16:57.330Z,25
2017-02-24T06:17:55.722Z,25
2017-02-24T06:18:55.892Z,25.1
2017-02-24T06:19:55.889Z,25.1
2017-02-24T06:20:55.883Z,25.2
2017-02-24T06:21:57.869Z,25.2
2017-02-24T06:22:57.513Z,25.2
2017-02-24T06:23:57.511Z,25.3
2017-02-24T06:24:56.114Z,25.3
2017-02-24T06:25:57.663Z,25.3
2017-02-24T06:26:56.179Z,25.3
2017-02-24T06:27:57.954Z,25.4
2017-02-24T06:28:56.162Z,25.4
2017-02-24T06:29:57.780Z,25.4
2017-02-24T06:30:56.259Z,25.4
2017-02-24T06:31:57.894Z,25.5
2017-02-24T06:32:57.870Z,25.5
2017-02-24T06:33:58.332Z,25.5
2017-02-24T06:34:56.415Z,25.5
2017-02-24T06:35:58.014Z,25.5
2017-02-24T06:36:56.436Z,25.5
2017-02-24T06:37:58.110Z,25.5
2017-02-24T06:38:56.515Z,25.6
2017-02-24T06:39:58.414Z,25.6
2017-02-24T06:40:58.331Z,25.6
2017-02-24T06:41:58.347Z,25.6
2017-02-24T06:42:56.786Z,25.6
2017-02-24T06:43:56.661Z,25.6
2017-02-24T06:44:56.636Z,25.6
2017-02-24T06:45:58.471Z,25.5
2017-02-24T06:46:56.766Z,25
2017-02-24T06:47:58.395Z,24.4
2017-02-24T06:48:56.755Z,23.9
2017-02-24T06:49:56.857Z,23.4
2017-02-24T06:50:56.905Z,23
2017-02-24T06:51:59.514Z,22.6
2017-02-24T06:52:56.892Z,22.2
2017-02-24T06:53:58.646Z,21.9
2017-02-24T06:54:58.666Z,21.7
2017-02-24T06:55:57.134Z,21.4
2017-02-24T06:56:57.294Z,21.3
2017-02-24T06:57:59.222Z,21.2
2017-02-24T06:58:58.903Z,21
2017-02-24T06:59:58.965Z,20.8
2017-02-24T07:00:57.519Z,20.7
2017-02-24T07:01:57.526Z,20.6
2017-02-24T07:02:59.285Z,20.5
2017-02-24T07:03:59.542Z,20.5
2017-02-24T07:04:57.773Z,20.5
2017-02-24T07:05:57.664Z,20.3
2017-02-24T07:06:57.821Z,20.3
2017-02-24T07:07:59.430Z,20.2
2017-02-24T07:08:59.326Z,20.2
2017-02-24T07:09:59.740Z,20.2
2017-02-24T07:10:57.830Z,20.3
2017-02-24T07:11:59.546Z,20.2
2017-02-24T07:12:59.551Z,20.1
2017-02-24T07:13:58.085Z,20.1
2017-02-24T07:14:59.606Z,20.1
2017-02-24T07:15:58.449Z,20
2017-02-24T07:16:59.787Z,20
2017-02-24T07:17:59.742Z,19.9
2017-02-24T07:18:58.114Z,19.8
2017-02-24T07:19:59.837Z,19.7
2017-02-24T07:20:58.207Z,19.7
2017-02-24T07:22:00.242Z,19.7
2017-02-24T07:22:58.475Z,19.6
2017-02-24T07:24:00.114Z,19.7
2017-02-24T07:25:00.085Z,19.7
2017-02-24T07:26:00.111Z,19.6
2017-02-24T07:26:58.525Z,19.4
2017-02-24T07:28:00.704Z,19.4
2017-02-24T07:28:58.816Z,19.3
2017-02-24T07:30:00.395Z,19.3
2017-02-24T07:31:00.497Z,19.3
2017-02-24T07:32:00.524Z,19.3
2017-02-24T07:33:01.343Z,19.3
2017-02-24T07:33:59.188Z,19.3
2017-02-24T07:35:00.543Z,19.4
2017-02-24T07:35:58.984Z,19.5
2017-02-24T07:37:00.749Z,19.5
2017-02-24T07:37:59.639Z,19.5
2017-02-24T07:39:00.759Z,19.5
2017-02-24T07:39:59.607Z,19.5
2017-02-24T07:41:00.803Z,19.4
2017-02-24T07:42:01.036Z,19.3
2017-02-24T07:42:59.453Z,19.4
2017-02-24T07:43:59.688Z,19.6
2017-02-24T07:44:59.629Z,19.8
2017-02-24T07:46:00.105Z,20.1
2017-02-24T07:46:59.789Z,20.3
2017-02-24T07:48:00.458Z,20.5
2017-02-24T07:48:59.852Z,20.8
2017-02-24T07:50:00.009Z,21
2017-02-24T07:51:00.037Z,21.2
2017-02-24T07:52:02.435Z,21.4
2017-02-24T07:53:00.148Z,21.5
2017-02-24T07:54:00.161Z,21.7
2017-02-24T07:55:00.750Z,21.8
2017-02-24T07:56:01.830Z,22
2017-02-24T07:57:02.439Z,22.2
2017-02-24T07:58:00.401Z,22.3
2017-02-24T07:59:01.874Z,22.5
2017-02-24T08:00:00.435Z,22.6
2017-02-24T08:01:00.311Z,22.7
2017-02-24T08:02:02.147Z,22.8
2017-02-24T08:03:00.381Z,22.9
2017-02-24T08:04:02.428Z,22.9
2017-02-24T08:05:02.123Z,23.1
2017-02-24T08:06:02.097Z,23.2
2017-02-24T08:07:00.608Z,23.3
2017-02-24T08:08:02.383Z,23.5
2017-02-24T08:09:02.433Z,23.6
2017-02-24T08:10:04.338Z,23.7
2017-02-24T08:11:00.731Z,23.8
2017-02-24T08:12:00.716Z,23.8
2017-02-24T08:13:02.397Z,23.9
2017-02-24T08:14:00.776Z,24
2017-02-24T08:15:00.927Z,24.1
2017-02-24T08:16:03.373Z,24.2
2017-02-24T08:17:02.601Z,24.3
2017-02-24T08:18:01.695Z,24.3
2017-02-24T08:19:02.553Z,24.3
2017-02-24T08:20:02.738Z,24.4
2017-02-24T08:21:01.910Z,24.4
2017-02-24T08:22:03.544Z,24.4
2017-02-24T08:23:03.542Z,24.5
2017-02-24T08:24:01.133Z,24.5
2017-02-24T08:25:02.830Z,24.5
2017-02-24T08:26:02.816Z,24.5
2017-02-24T08:27:03.482Z,24.6
2017-02-24T08:28:03.215Z,24.6
2017-02-24T08:29:02.947Z,24.7
2017-02-24T08:30:02.791Z,24.7
2017-02-24T08:31:01.480Z,24.9
2017-02-24T08:32:03.804Z,25
2017-02-24T08:33:03.560Z,25.1
2017-02-24T08:34:03.490Z,25.3
2017-02-24T08:35:01.841Z,25.4
2017-02-24T08:36:01.753Z,25.5
2017-02-24T08:37:03.161Z,25.7
2017-02-24T08:38:03.481Z,25.8
2017-02-24T08:39:01.803Z,25.9
2017-02-24T08:40:02.158Z,26
2017-02-24T08:41:03.534Z,26.1
2017-02-24T08:42:03.758Z,26.2
2017-02-24T08:43:02.171Z,26.2
2017-02-24T08:44:02.254Z,26.3
2017-02-24T08:45:02.799Z,26.3
2017-02-24T08:46:03.159Z,26.4
2017-02-24T08:47:02.382Z,26.5
2017-02-24T08:48:02.291Z,26.5
2017-02-24T08:49:02.358Z,26.6
2017-02-24T08:50:02.499Z,26.7
2017-02-24T08:51:04.056Z,26.7
2017-02-24T08:52:03.383Z,26.8
2017-02-24T08:53:04.249Z,26.8
2017-02-24T08:54:04.183Z,26.8
2017-02-24T08:55:04.345Z,26.9
2017-02-24T08:56:04.234Z,27
2017-02-24T08:57:04.222Z,26.9
2017-02-24T08:58:03.034Z,26.8
2017-02-24T08:59:04.272Z,26.8
2017-02-24T09:00:05.052Z,26.7
2017-02-24T09:01:02.848Z,26.6
2017-02-24T09:02:02.813Z,26.6
2017-02-24T09:03:03.602Z,26.6
2017-02-24T09:04:05.497Z,26.5
2017-02-24T09:05:03.571Z,26.5
2017-02-24T09:06:03.535Z,26.5
2017-02-24T09:07:04.575Z,26.5
2017-02-24T09:08:04.735Z,26.4
2017-02-24T09:09:04.624Z,26.4
2017-02-24T09:10:05.105Z,26.3
2017-02-24T09:11:06.568Z,26.3
2017-02-24T09:12:05.572Z,26.3
2017-02-24T09:13:05.010Z,26.3
2017-02-24T09:14:05.661Z,26.2
2017-02-24T09:15:04.232Z,26.2
2017-02-24T09:16:03.780Z,26.2
2017-02-24T09:17:05.144Z,26.1
2017-02-24T09:18:05.746Z,26.1
2017-02-24T09:19:05.264Z,26.1
2017-02-24T09:20:05.291Z,26.1
2017-02-24T09:21:05.970Z,26
2017-02-24T09:22:04.118Z,26
2017-02-24T09:23:06.033Z,26
2017-02-24T09:24:05.489Z,26
2017-02-24T09:25:03.874Z,26
2017-02-24T09:26:05.607Z,26
2017-02-24T09:27:05.746Z,26
2017-02-24T09:28:05.916Z,26
2017-02-24T09:29:05.727Z,26.1
2017-02-24T09:30:04.175Z,26
2017-02-24T09:31:07.078Z,26.1
2017-02-24T09:32:04.401Z,26.1
2017-02-24T09:33:05.949Z,26.1
2017-02-24T09:34:04.719Z,26.1
2017-02-24T09:35:05.992Z,26.1
2017-02-24T09:36:05.142Z,26.2
2017-02-24T09:37:06.102Z,26.2
2017-02-24T09:38:06.207Z,26.3
2017-02-24T09:39:04.729Z,26.3
2017-02-24T09:40:07.228Z,26.4
2017-02-24T09:41:04.735Z,26.4
2017-02-24T09:42:06.442Z,26.5
2017-02-24T09:43:06.538Z,26.6
2017-02-24T09:44:05.006Z,26.6
2017-02-24T09:45:06.614Z,26.7
2017-02-24T09:46:07.099Z,26.8
2017-02-24T09:47:05.184Z,26.9
2017-02-24T09:48:06.790Z,27
2017-02-24T09:49:06.749Z,27
2017-02-24T09:50:05.997Z,27.1
2017-02-24T09:51:07.021Z,27.2
2017-02-24T09:52:05.527Z,27.2
2017-02-24T09:53:06.222Z,27.2
2017-02-24T09:54:07.144Z,27.3
2017-02-24T09:55:07.689Z,27.3
2017-02-24T09:56:05.488Z,27.4
2017-02-24T09:57:09.027Z,27.4
2017-02-24T09:58:07.236Z,27.4
2017-02-24T09:59:06.881Z,27.5
2017-02-24T10:00:07.249Z,27.5
2017-02-24T10:01:05.698Z,27.5
2017-02-24T10:02:05.870Z,27.5
2017-02-24T10:03:05.971Z,27.5
2017-02-24T10:04:05.956Z,27.5
2017-02-24T10:05:06.095Z,27.5
2017-02-24T10:06:07.614Z,27.6
2017-02-24T10:07:07.798Z,27.6
2017-02-24T10:08:07.646Z,27.6
2017-02-24T10:09:06.643Z,27.7
2017-02-24T10:10:06.229Z,27.7
2017-02-24T10:11:06.201Z,27.7
2017-02-24T10:12:07.957Z,27.7
2017-02-24T10:13:08.066Z,27.7
2017-02-24T10:14:08.052Z,27.7
2017-02-24T10:15:08.761Z,27.8
2017-02-24T10:16:09.797Z,27.8
2017-02-24T10:17:06.384Z,27.8
2017-02-24T10:18:06.445Z,27.7
2017-02-24T10:19:07.191Z,27.7
2017-02-24T10:20:06.589Z,27.6
2017-02-24T10:21:11.341Z,27.6
2017-02-24T10:22:06.632Z,27.6
2017-02-24T10:23:07.356Z,27.5
2017-02-24T10:24:08.857Z,27.5
2017-02-24T10:25:06.916Z,27.5
2017-02-24T10:26:08.423Z,27.4
2017-02-24T10:27:06.895Z,27.4
2017-02-24T10:28:06.848Z,27.3
2017-02-24T10:29:07.729Z,27.4
2017-02-24T10:30:06.899Z,27.3
2017-02-24T10:31:09.826Z,27.3
2017-02-24T10:32:08.689Z,27.3
2017-02-24T10:33:08.744Z,27.3
2017-02-24T10:34:07.224Z,27.2
2017-02-24T10:35:07.129Z,27.2
2017-02-24T10:36:07.393Z,27.2
2017-02-24T10:37:07.957Z,27.2
2017-02-24T10:38:08.990Z,27.2
2017-02-24T10:39:07.557Z,27.2
2017-02-24T10:40:07.454Z,27.2
2017-02-24T10:41:07.483Z,27.2
2017-02-24T10:42:09.157Z,27.2
2017-02-24T10:43:09.352Z,27.2
2017-02-24T10:44:08.395Z,27.2
2017-02-24T10:45:07.827Z,27.2
2017-02-24T10:46:09.473Z,27.2
2017-02-24T10:47:07.974Z,27.2
2017-02-24T10:48:09.600Z,27.2
2017-02-24T10:49:07.900Z,27.2
2017-02-24T10:50:07.890Z,27.2
2017-02-24T10:51:08.110Z,27.2
2017-02-24T10:52:08.083Z,27.3
2017-02-24T10:53:10.222Z,27.3
2017-02-24T10:54:08.282Z,27.3
2017-02-24T10:55:09.615Z,27.3
2017-02-24T10:56:10.029Z,27.3
2017-02-24T10:57:10.017Z,27.3
2017-02-24T10:58:08.380Z,27.3
2017-02-24T10:59:08.555Z,27.3
2017-02-24T11:00:08.656Z,27.3
2017-02-24T11:01:08.686Z,27.3
2017-02-24T11:02:08.952Z,27.3
2017-02-24T11:03:09.441Z,27.2
2017-02-24T11:04:10.620Z,27.2
2017-02-24T11:05:10.612Z,27.2
2017-02-24T11:06:09.069Z,27.2
2017-02-24T11:07:09.198Z,27.2
2017-02-24T11:08:09.036Z,27.2
2017-02-24T11:09:10.771Z,27.2
2017-02-24T11:10:10.700Z,27.2
2017-02-24T11:11:11.302Z,27.3
2017-02-24T11:12:09.857Z,27.2
2017-02-24T11:13:09.326Z,27.2
2017-02-24T11:14:09.225Z,27.2
2017-02-24T11:15:09.628Z,27.2
2017-02-24T11:16:11.111Z,27.2
2017-02-24T11:17:11.166Z,27.2
2017-02-24T11:18:11.040Z,27.2
2017-02-24T11:19:09.696Z,27.2
2017-02-24T11:20:11.178Z,27.2
2017-02-24T11:21:13.471Z,27.2
2017-02-24T11:22:11.268Z,27.2
2017-02-24T11:23:11.316Z,27.2
2017-02-24T11:24:09.816Z,27.2
2017-02-24T11:25:11.578Z,27.2
2017-02-24T11:26:11.436Z,27.2
2017-02-24T11:27:11.728Z,27.1
2017-02-24T11:28:11.529Z,27.2
2017-02-24T11:29:10.046Z,27.1
2017-02-24T11:30:09.777Z,27.2
2017-02-24T11:31:11.381Z,27.2
2017-02-24T11:32:11.513Z,27.2
2017-02-24T11:33:10.184Z,27.2
2017-02-24T11:34:11.450Z,27.2
2017-02-24T11:35:11.519Z,27.2
2017-02-24T11:36:10.046Z,27.2
2017-02-24T11:37:11.703Z,27.2
2017-02-24T11:38:11.770Z,27.2
2017-02-24T11:39:10.578Z,27.2
2017-02-24T11:40:11.834Z,27.2
2017-02-24T11:41:10.238Z,27.2
2017-02-24T11:42:10.250Z,27.2
2017-02-24T11:43:10.309Z,27.2
2017-02-24T11:44:10.459Z,27.2
2017-02-24T11:45:12.230Z,27.2
2017-02-24T11:46:12.110Z,27.2
2017-02-24T11:47:10.493Z,27.2
2017-02-24T11:48:10.631Z,27.2
2017-02-24T11:49:10.503Z,27.2
2017-02-24T11:50:10.561Z,27.2
2017-02-24T11:51:12.690Z,27.2
2017-02-24T11:52:10.904Z,27.2
2017-02-24T11:53:12.363Z,27.2
2017-02-24T11:54:10.841Z,27.3
2017-02-24T11:55:10.859Z,27.2
2017-02-24T11:56:10.991Z,27.3
2017-02-24T11:57:11.356Z,27.3
2017-02-24T11:58:11.763Z,27.3
2017-02-24T11:59:11.168Z,27.3
2017-02-24T12:00:12.714Z,27.3
2017-02-24T12:01:12.781Z,27.3
2017-02-24T12:02:11.308Z,27.3
2017-02-24T12:03:13.180Z,27.3
2017-02-24T12:04:14.015Z,27.3
2017-02-24T12:05:13.070Z,27.3
2017-02-24T12:06:13.163Z,27.3
2017-02-24T12:07:12.132Z,27.3
2017-02-24T12:08:11.595Z,27.3
2017-02-24T12:09:11.988Z,27.3
2017-02-24T12:10:13.253Z,27
2017-02-24T12:11:14.043Z,26.7
2017-02-24T12:12:11.759Z,26.3
2017-02-24T12:13:11.876Z,25.9
2017-02-24T12:14:13.573Z,25.4
2017-02-24T12:15:13.922Z,25
2017-02-24T12:16:14.367Z,24.6
2017-02-24T12:17:12.044Z,24.3
2017-02-24T12:18:13.408Z,24.1
2017-02-24T12:19:12.129Z,23.9
2017-02-24T12:20:12.281Z,23.8
2017-02-24T12:21:12.613Z,23.7
2017-02-24T12:22:12.918Z,23.7
2017-02-24T12:23:13.885Z,23.7
2017-02-24T12:24:12.328Z,23.7
2017-02-24T12:25:12.384Z,23.7
2017-02-24T12:26:12.614Z,23.7
2017-02-24T12:27:12.775Z,23.6
2017-02-24T12:28:14.161Z,23.6
2017-02-24T12:29:14.433Z,23.5
2017-02-24T12:30:14.287Z,23.5
2017-02-24T12:31:12.703Z,23.5
2017-02-24T12:32:12.980Z,23.5
2017-02-24T12:33:14.615Z,23.4
2017-02-24T12:34:14.467Z,23.5
2017-02-24T12:35:14.405Z,23.4
2017-02-24T12:36:14.537Z,23.3
2017-02-24T12:37:13.016Z,23.2
2017-02-24T12:38:12.949Z,23.2
2017-02-24T12:39:14.837Z,23.3
2017-02-24T12:40:13.134Z,23.4
2017-02-24T12:41:13.141Z,23.5
2017-02-24T12:42:15.499Z,23.6
2017-02-24T12:43:13.274Z,23.8
2017-02-24T12:44:13.156Z,23.9
2017-02-24T12:45:13.594Z,24
2017-02-24T12:46:14.814Z,24.1
2017-02-24T12:47:13.406Z,24.2
2017-02-24T12:48:13.380Z,24.3
2017-02-24T12:49:13.305Z,24.5
2017-02-24T12:50:15.115Z,24.5
2017-02-24T12:51:13.845Z,24.6
2017-02-24T12:52:13.519Z,24.7
2017-02-24T12:53:13.659Z,24.8
2017-02-24T12:54:15.227Z,24.9
2017-02-24T12:55:15.404Z,25
2017-02-24T12:56:15.464Z,25
2017-02-24T12:57:14.176Z,25.1
2017-02-24T12:58:15.495Z,25.1
2017-02-24T12:59:14.001Z,25.2
2017-02-24T13:00:13.961Z,25.3
2017-02-24T13:01:14.165Z,25.3
2017-02-24T13:02:14.162Z,25.4
2017-02-24T13:03:16.017Z,25.5
2017-02-24T13:04:15.810Z,25.5
2017-02-24T13:05:14.211Z,25.5
2017-02-24T13:06:15.867Z,25.6
2017-02-24T13:07:15.928Z,25.6
2017-02-24T13:08:14.360Z,25.6
2017-02-24T13:09:14.735Z,25.7
2017-02-24T13:10:14.557Z,25.7
2017-02-24T13:11:14.587Z,25.8
2017-02-24T13:12:14.602Z,25.8
2017-02-24T13:13:14.883Z,25.9
2017-02-24T13:14:14.754Z,25.9
2017-02-24T13:15:16.667Z,26
2017-02-24T13:16:16.515Z,26
2017-02-24T13:17:16.508Z,26
2017-02-24T13:18:15.450Z,26
2017-02-24T13:19:15.109Z,26
2017-02-24T13:20:16.670Z,26.1
2017-02-24T13:21:15.414Z,26.1